Terminal Aerodrome Forecast
Issued by NWS

Home | Current Version | Previous Version | Text Only | Print | Product List | Glossary On
Versions: 1 2 3 4 5 6 7 8 9 10 11 12 13 14 15 16 17 18
000
FTUS46 KLOX 300528
TAFSBP
TAF
KSBP 300528Z 3006/3106 30007KT P6SM OVC007
     FM300900 VRB03KT 3SM BR OVC006
     FM301200 VRB03KT 2SM BR OVC004
     FM301600 VRB03KT 6SM BR OVC007
     FM301800 VRB03KT P6SM SKC
     FM302100 29010KT P6SM SKC
     FM310400 VRB03KT P6SM BKN005=

USA.gov is the U.S. government's official web portal to all federal, state and local government web resources and services.